KAL725 RKSI-RJBB
Flight info
| Callsign | KAL725 |
|---|---|
| Flight time | 1h 19m |
| Altitude | 41000 |
| Route | EGOBA2C EGOBA Y697 LANAT Y597 MIHOU Y361 SAEKI Y36 ATMUG ATMUGE |
| Aircraft | A388/J-SADE2E3FGHIJ3J4J5M1RWXY/LB1D1 |
Departure
| Time | 2026-05-07 06:33 |
|---|---|
| Airport | Incheon International Airport (RKSI) |
Arrival
| Time | 2026-05-07 07:52 |
|---|---|
| Airport | Kansai International Airport (RJBB) |
| Time | Latitude | Longitude | Altitude | Speed | Heading |
|---|---|---|---|---|---|
| 2026-05-07 06:19 | 37.46337 | 126.43052 | 36 ft | 0 kts | 155° |
| 2026-05-07 06:20 | 37.46324 | 126.43059 | 36 ft | 6 kts | 155° |
| 2026-05-07 06:20 | 37.46287 | 126.43082 | 35 ft | 6 kts | 154° |
| 2026-05-07 06:21 | 37.46250 | 126.43104 | 37 ft | 6 kts | 154° |
| 2026-05-07 06:21 | 37.46210 | 126.43128 | 37 ft | 6 kts | 157° |
| 2026-05-07 06:21 | 37.46169 | 126.43151 | 37 ft | 7 kts | 147° |
| 2026-05-07 06:21 | 37.46129 | 126.43187 | 37 ft | 7 kts | 146° |
| 2026-05-07 06:22 | 37.46085 | 126.43225 | 37 ft | 8 kts | 146° |
| 2026-05-07 06:22 | 37.45973 | 126.43321 | 37 ft | 16 kts | 143° |
| 2026-05-07 06:22 | 37.45892 | 126.43456 | 37 ft | 4 kts | 128° |
| 2026-05-07 06:23 | 37.45804 | 126.43567 | 37 ft | 22 kts | 144° |
| 2026-05-07 06:23 | 37.45705 | 126.43623 | 37 ft | 13 kts | 164° |
| 2026-05-07 06:23 | 37.45624 | 126.43658 | 37 ft | 12 kts | 152° |
| 2026-05-07 06:23 | 37.45579 | 126.43731 | 37 ft | 11 kts | 100° |
| 2026-05-07 06:24 | 37.45592 | 126.43800 | 36 ft | 0 kts | 40° |
| 2026-05-07 06:24 | 37.45685 | 126.43944 | 37 ft | 33 kts | 60° |
| 2026-05-07 06:24 | 37.45787 | 126.44156 | 37 ft | 23 kts | 62° |
| 2026-05-07 06:24 | 37.45891 | 126.44324 | 37 ft | 26 kts | 54° |
| 2026-05-07 06:25 | 37.45975 | 126.44536 | 37 ft | 28 kts | 84° |
| 2026-05-07 06:25 | 37.46032 | 126.44762 | 37 ft | 27 kts | 61° |
| 2026-05-07 06:25 | 37.46152 | 126.44833 | 37 ft | 18 kts | 336° |
| 2026-05-07 06:25 | 37.46246 | 126.44753 | 37 ft | 16 kts | 327° |
| 2026-05-07 06:26 | 37.46337 | 126.44674 | 37 ft | 16 kts | 321° |
| 2026-05-07 06:26 | 37.46424 | 126.44589 | 37 ft | 16 kts | 334° |
| 2026-05-07 06:26 | 37.46515 | 126.44512 | 37 ft | 16 kts | 319° |
| 2026-05-07 06:26 | 37.46603 | 126.44429 | 37 ft | 16 kts | 323° |
| 2026-05-07 06:27 | 37.46697 | 126.44350 | 37 ft | 16 kts | 319° |
| 2026-05-07 06:27 | 37.46781 | 126.44269 | 37 ft | 15 kts | 319° |
| 2026-05-07 06:27 | 37.46863 | 126.44182 | 37 ft | 16 kts | 320° |
| 2026-05-07 06:27 | 37.46949 | 126.44103 | 37 ft | 12 kts | 354° |
| 2026-05-07 06:28 | 37.47015 | 126.44153 | 37 ft | 13 kts | 49° |
| 2026-05-07 06:28 | 37.47088 | 126.44183 | 37 ft | 11 kts | 339° |
| 2026-05-07 06:28 | 37.47153 | 126.44128 | 37 ft | 12 kts | 328° |
| 2026-05-07 06:28 | 37.47224 | 126.44063 | 37 ft | 13 kts | 323° |
| 2026-05-07 06:29 | 37.47331 | 126.43962 | 37 ft | 23 kts | 324° |
| 2026-05-07 06:29 | 37.47461 | 126.43867 | 37 ft | 21 kts | 322° |
| 2026-05-07 06:29 | 37.47576 | 126.43755 | 37 ft | 21 kts | 322° |
| 2026-05-07 06:29 | 37.47694 | 126.43645 | 37 ft | 21 kts | 328° |
| 2026-05-07 06:30 | 37.47812 | 126.43538 | 37 ft | 20 kts | 324° |
| 2026-05-07 06:30 | 37.47926 | 126.43440 | 37 ft | 18 kts | 328° |
| 2026-05-07 06:30 | 37.48003 | 126.43409 | 37 ft | 11 kts | 27° |
| 2026-05-07 06:30 | 37.48071 | 126.43481 | 37 ft | 15 kts | 51° |
| 2026-05-07 06:31 | 37.48084 | 126.43506 | 37 ft | 2 kts | 59° |
| 2026-05-07 06:31 | 37.48100 | 126.43539 | 37 ft | 7 kts | 59° |
| 2026-05-07 06:31 | 37.48133 | 126.43608 | 37 ft | 11 kts | 62° |
| 2026-05-07 06:31 | 37.48124 | 126.43688 | 37 ft | 7 kts | 137° |
| 2026-05-07 06:32 | 37.48116 | 126.43696 | 37 ft | 3 kts | 147° |
| 2026-05-07 06:32 | 37.47983 | 126.43803 | 38 ft | 60 kts | 144° |
| 2026-05-07 06:32 | 37.47450 | 126.44302 | 37 ft | 127 kts | 147° |
| 2026-05-07 06:32 | 37.46601 | 126.45047 | 57 ft | 166 kts | 144° |
| 2026-05-07 06:33 | 37.45664 | 126.45934 | 482 ft | 169 kts | 141° |
| 2026-05-07 06:33 | 37.45080 | 126.46609 | 869 ft | 170 kts | 138° |
| 2026-05-07 06:33 | 37.44213 | 126.47866 | 1472 ft | 177 kts | 132° |
| 2026-05-07 06:34 | 37.43455 | 126.49146 | 1855 ft | 191 kts | 131° |
| 2026-05-07 06:34 | 37.42588 | 126.50547 | 2244 ft | 213 kts | 133° |
| 2026-05-07 06:34 | 37.41592 | 126.52041 | 2780 ft | 234 kts | 134° |
| 2026-05-07 06:34 | 37.40484 | 126.53670 | 3352 ft | 256 kts | 134° |
| 2026-05-07 06:35 | 37.39277 | 126.55446 | 3901 ft | 275 kts | 133° |
| 2026-05-07 06:35 | 37.38021 | 126.57297 | 4730 ft | 281 kts | 136° |
| 2026-05-07 06:35 | 37.36488 | 126.58798 | 5582 ft | 278 kts | 157° |
| 2026-05-07 06:35 | 37.34694 | 126.59645 | 6496 ft | 277 kts | 168° |
| 2026-05-07 06:36 | 37.32839 | 126.60372 | 7409 ft | 278 kts | 168° |
| 2026-05-07 06:36 | 37.30998 | 126.61123 | 8349 ft | 280 kts | 168° |
| 2026-05-07 06:36 | 37.29168 | 126.62070 | 9161 ft | 295 kts | 154° |
| 2026-05-07 06:36 | 37.27673 | 126.63915 | 10031 ft | 313 kts | 129° |
| 2026-05-07 06:37 | 37.26773 | 126.66512 | 10523 ft | 340 kts | 106° |
| 2026-05-07 06:37 | 37.26643 | 126.69580 | 10764 ft | 367 kts | 85° |
| 2026-05-07 06:37 | 37.27084 | 126.72830 | 11112 ft | 383 kts | 79° |
| 2026-05-07 06:37 | 37.27591 | 126.76141 | 11781 ft | 388 kts | 81° |
| 2026-05-07 06:38 | 37.27991 | 126.79514 | 12446 ft | 393 kts | 84° |
| 2026-05-07 06:38 | 37.28278 | 126.82945 | 13129 ft | 398 kts | 86° |
| 2026-05-07 06:38 | 37.28497 | 126.86423 | 13816 ft | 403 kts | 87° |
| 2026-05-07 06:38 | 37.28688 | 126.89958 | 14455 ft | 407 kts | 87° |
| 2026-05-07 06:39 | 37.28947 | 126.93515 | 15064 ft | 412 kts | 85° |
| 2026-05-07 06:39 | 37.29276 | 126.97108 | 15686 ft | 417 kts | 84° |
| 2026-05-07 06:39 | 37.29622 | 127.00686 | 16295 ft | 421 kts | 84° |
| 2026-05-07 06:39 | 37.29948 | 127.04097 | 16869 ft | 424 kts | 84° |
| 2026-05-07 06:40 | 37.30302 | 127.07872 | 17443 ft | 430 kts | 85° |
| 2026-05-07 06:40 | 37.30685 | 127.11621 | 18018 ft | 435 kts | 81° |
| 2026-05-07 06:40 | 37.31433 | 127.15319 | 18556 ft | 440 kts | 72° |
| 2026-05-07 06:40 | 37.32423 | 127.18976 | 18997 ft | 445 kts | 71° |
| 2026-05-07 06:41 | 37.33566 | 127.22593 | 19472 ft | 448 kts | 60° |
| 2026-05-07 06:41 | 37.35363 | 127.25806 | 19897 ft | 449 kts | 43° |
| 2026-05-07 06:41 | 37.37724 | 127.28341 | 20382 ft | 447 kts | 31° |
| 2026-05-07 06:41 | 37.40290 | 127.30561 | 20824 ft | 450 kts | 28° |
| 2026-05-07 06:42 | 37.42903 | 127.32755 | 21284 ft | 454 kts | 28° |
| 2026-05-07 06:42 | 37.45532 | 127.35003 | 21705 ft | 460 kts | 31° |
| 2026-05-07 06:42 | 37.47928 | 127.37734 | 22134 ft | 472 kts | 46° |
| 2026-05-07 06:42 | 37.49817 | 127.41161 | 22552 ft | 480 kts | 61° |
| 2026-05-07 06:43 | 37.51063 | 127.45071 | 22954 ft | 485 kts | 76° |
| 2026-05-07 06:43 | 37.51622 | 127.49271 | 23368 ft | 486 kts | 88° |
| 2026-05-07 06:43 | 37.51852 | 127.53529 | 23774 ft | 489 kts | 89° |
| 2026-05-07 06:43 | 37.52156 | 127.57800 | 24226 ft | 492 kts | 86° |
| 2026-05-07 06:44 | 37.52624 | 127.62092 | 24601 ft | 497 kts | 83° |
| 2026-05-07 06:44 | 37.53007 | 127.64936 | 24880 ft | 499 kts | 82° |
| 2026-05-07 06:44 | 37.53883 | 127.70724 | 25406 ft | 504 kts | 81° |
| 2026-05-07 06:44 | 37.54571 | 127.75046 | 25843 ft | 508 kts | 80° |
| 2026-05-07 06:45 | 37.55038 | 127.77956 | 26138 ft | 510 kts | 81° |
| 2026-05-07 06:45 | 37.55977 | 127.83841 | 26750 ft | 514 kts | 80° |
| 2026-05-07 06:45 | 37.56441 | 127.86768 | 27056 ft | 517 kts | 81° |
| 2026-05-07 06:45 | 37.57147 | 127.91240 | 27517 ft | 521 kts | 80° |
| 2026-05-07 06:46 | 37.57851 | 127.95735 | 27969 ft | 525 kts | 81° |
| 2026-05-07 06:46 | 37.58559 | 128.00267 | 28460 ft | 529 kts | 81° |
| 2026-05-07 06:46 | 37.59270 | 128.04821 | 28990 ft | 532 kts | 81° |
| 2026-05-07 06:46 | 37.59987 | 128.09432 | 29454 ft | 536 kts | 81° |
| 2026-05-07 06:47 | 37.60495 | 128.14090 | 29912 ft | 537 kts | 91° |
| 2026-05-07 06:47 | 37.60348 | 128.18781 | 30363 ft | 533 kts | 103° |
| 2026-05-07 06:47 | 37.59538 | 128.23300 | 30850 ft | 526 kts | 115° |
| 2026-05-07 06:47 | 37.58109 | 128.27507 | 31255 ft | 518 kts | 127° |
| 2026-05-07 06:48 | 37.56162 | 128.31281 | 31674 ft | 513 kts | 134° |
| 2026-05-07 06:48 | 37.54102 | 128.34978 | 32092 ft | 518 kts | 131° |
| 2026-05-07 06:48 | 37.52201 | 128.38885 | 32528 ft | 527 kts | 127° |
| 2026-05-07 06:48 | 37.50484 | 128.42985 | 32959 ft | 534 kts | 123° |
| 2026-05-07 06:49 | 37.48892 | 128.47174 | 33358 ft | 539 kts | 122° |
| 2026-05-07 06:49 | 37.47310 | 128.51537 | 33798 ft | 543 kts | 121° |
| 2026-05-07 06:49 | 37.45761 | 128.55872 | 34158 ft | 546 kts | 121° |
| 2026-05-07 06:49 | 37.44237 | 128.60136 | 34583 ft | 548 kts | 121° |
| 2026-05-07 06:50 | 37.42671 | 128.64502 | 35138 ft | 546 kts | 121° |
| 2026-05-07 06:50 | 37.41127 | 128.68787 | 35727 ft | 544 kts | 121° |
| 2026-05-07 06:50 | 37.39565 | 128.73106 | 36325 ft | 541 kts | 121° |
| 2026-05-07 06:50 | 37.38005 | 128.77407 | 36929 ft | 539 kts | 121° |
| 2026-05-07 06:51 | 37.36455 | 128.81671 | 37486 ft | 536 kts | 121° |
| 2026-05-07 06:51 | 37.34914 | 128.85904 | 38056 ft | 534 kts | 121° |
| 2026-05-07 06:51 | 37.33367 | 128.90145 | 38557 ft | 533 kts | 121° |
| 2026-05-07 06:51 | 37.31823 | 128.94372 | 38950 ft | 532 kts | 121° |
| 2026-05-07 06:52 | 37.30278 | 128.98595 | 39301 ft | 532 kts | 121° |
| 2026-05-07 06:52 | 37.28731 | 129.02812 | 39605 ft | 533 kts | 121° |
| 2026-05-07 06:52 | 37.27178 | 129.07043 | 39958 ft | 533 kts | 121° |
| 2026-05-07 06:52 | 37.25623 | 129.11277 | 40215 ft | 535 kts | 121° |
| 2026-05-07 06:53 | 37.24065 | 129.15511 | 40535 ft | 536 kts | 121° |
| 2026-05-07 06:53 | 37.22500 | 129.19761 | 40804 ft | 538 kts | 121° |
| 2026-05-07 06:53 | 37.19338 | 129.28322 | 40828 ft | 538 kts | 121° |
| 2026-05-07 06:54 | 37.16221 | 129.36747 | 40832 ft | 537 kts | 121° |
| 2026-05-07 06:54 | 37.13065 | 129.45248 | 40832 ft | 537 kts | 121° |
| 2026-05-07 06:55 | 37.09905 | 129.53743 | 40828 ft | 537 kts | 121° |
| 2026-05-07 06:55 | 37.06750 | 129.62199 | 40825 ft | 536 kts | 121° |
| 2026-05-07 06:56 | 37.03585 | 129.70652 | 40827 ft | 536 kts | 121° |
| 2026-05-07 06:56 | 37.00415 | 129.79099 | 40835 ft | 536 kts | 121° |
| 2026-05-07 06:57 | 36.97242 | 129.87531 | 40839 ft | 535 kts | 121° |
| 2026-05-07 06:57 | 36.94064 | 129.95953 | 40829 ft | 535 kts | 121° |
| 2026-05-07 06:58 | 36.90887 | 130.04351 | 40843 ft | 534 kts | 121° |
| 2026-05-07 06:58 | 36.87709 | 130.12728 | 40840 ft | 533 kts | 121° |
| 2026-05-07 06:59 | 36.84531 | 130.21083 | 40842 ft | 532 kts | 121° |
| 2026-05-07 06:59 | 36.81356 | 130.29408 | 40843 ft | 531 kts | 121° |
| 2026-05-07 07:00 | 36.78176 | 130.37724 | 40843 ft | 530 kts | 121° |
| 2026-05-07 07:00 | 36.74998 | 130.46012 | 40846 ft | 529 kts | 121° |
| 2026-05-07 07:01 | 36.71817 | 130.54287 | 40847 ft | 529 kts | 121° |
| 2026-05-07 07:01 | 36.68634 | 130.62544 | 40851 ft | 529 kts | 121° |
| 2026-05-07 07:02 | 36.65447 | 130.70789 | 40856 ft | 528 kts | 121° |
| 2026-05-07 07:02 | 36.62255 | 130.79027 | 40859 ft | 528 kts | 121° |
| 2026-05-07 07:03 | 36.59056 | 130.87260 | 40864 ft | 528 kts | 121° |
| 2026-05-07 07:03 | 36.55855 | 130.95482 | 40868 ft | 528 kts | 121° |
| 2026-05-07 07:04 | 36.52649 | 131.03691 | 40867 ft | 528 kts | 121° |
| 2026-05-07 07:04 | 36.49437 | 131.11893 | 40868 ft | 528 kts | 121° |
| 2026-05-07 07:05 | 36.46222 | 131.20086 | 40877 ft | 527 kts | 121° |
| 2026-05-07 07:05 | 36.43003 | 131.28263 | 40887 ft | 527 kts | 121° |
| 2026-05-07 07:06 | 36.39799 | 131.36387 | 40888 ft | 527 kts | 121° |
| 2026-05-07 07:06 | 36.36468 | 131.44457 | 40889 ft | 523 kts | 125° |
| 2026-05-07 07:07 | 36.32686 | 131.52136 | 40889 ft | 521 kts | 127° |
| 2026-05-07 07:07 | 36.28885 | 131.59796 | 40893 ft | 521 kts | 127° |
| 2026-05-07 07:08 | 36.25088 | 131.67433 | 40895 ft | 521 kts | 127° |
| 2026-05-07 07:08 | 36.21284 | 131.75066 | 40898 ft | 520 kts | 127° |
| 2026-05-07 07:09 | 36.17481 | 131.82680 | 40899 ft | 520 kts | 127° |
| 2026-05-07 07:09 | 36.13676 | 131.90278 | 40908 ft | 519 kts | 127° |
| 2026-05-07 07:10 | 36.09868 | 131.97867 | 40902 ft | 519 kts | 127° |
| 2026-05-07 07:10 | 36.06068 | 132.05412 | 40902 ft | 518 kts | 127° |
| 2026-05-07 07:11 | 36.02251 | 132.12959 | 40905 ft | 517 kts | 127° |
| 2026-05-07 07:11 | 35.98434 | 132.20477 | 40917 ft | 517 kts | 127° |
| 2026-05-07 07:12 | 35.94635 | 132.27937 | 40917 ft | 516 kts | 127° |
| 2026-05-07 07:12 | 35.90812 | 132.35422 | 40907 ft | 515 kts | 127° |
| 2026-05-07 07:13 | 35.86983 | 132.42901 | 40913 ft | 515 kts | 128° |
| 2026-05-07 07:13 | 35.83158 | 132.50356 | 40915 ft | 514 kts | 128° |
| 2026-05-07 07:14 | 35.79338 | 132.57788 | 40904 ft | 514 kts | 128° |
| 2026-05-07 07:14 | 35.75512 | 132.65217 | 40909 ft | 513 kts | 128° |
| 2026-05-07 07:15 | 35.71697 | 132.72609 | 40910 ft | 513 kts | 128° |
| 2026-05-07 07:15 | 35.67879 | 132.79998 | 40521 ft | 509 kts | 128° |
| 2026-05-07 07:16 | 35.65992 | 132.83652 | 40110 ft | 504 kts | 128° |
| 2026-05-07 07:16 | 35.64119 | 132.87280 | 39690 ft | 500 kts | 127° |
| 2026-05-07 07:16 | 35.62272 | 132.90862 | 39302 ft | 495 kts | 127° |
| 2026-05-07 07:16 | 35.60440 | 132.94417 | 38907 ft | 490 kts | 127° |
| 2026-05-07 07:17 | 35.58622 | 132.97946 | 38521 ft | 485 kts | 127° |
| 2026-05-07 07:17 | 35.56823 | 133.01439 | 38020 ft | 482 kts | 127° |
| 2026-05-07 07:17 | 35.55060 | 133.04863 | 37563 ft | 479 kts | 127° |
| 2026-05-07 07:17 | 35.53267 | 133.08345 | 37116 ft | 474 kts | 127° |
| 2026-05-07 07:18 | 35.51509 | 133.11760 | 36640 ft | 472 kts | 127° |
| 2026-05-07 07:18 | 35.49785 | 133.15108 | 36204 ft | 468 kts | 127° |
| 2026-05-07 07:18 | 35.48050 | 133.18475 | 35774 ft | 465 kts | 127° |
| 2026-05-07 07:18 | 35.46327 | 133.21819 | 35348 ft | 462 kts | 127° |
| 2026-05-07 07:19 | 35.44592 | 133.25183 | 34930 ft | 459 kts | 127° |
| 2026-05-07 07:19 | 35.42895 | 133.28473 | 34502 ft | 456 kts | 127° |
| 2026-05-07 07:19 | 35.41224 | 133.31712 | 34090 ft | 453 kts | 127° |
| 2026-05-07 07:19 | 35.39547 | 133.34960 | 33642 ft | 451 kts | 127° |
| 2026-05-07 07:20 | 35.37853 | 133.38237 | 33155 ft | 449 kts | 127° |
| 2026-05-07 07:20 | 35.36181 | 133.41469 | 32668 ft | 447 kts | 127° |
| 2026-05-07 07:20 | 35.34541 | 133.44635 | 32210 ft | 445 kts | 127° |
| 2026-05-07 07:20 | 35.32867 | 133.47865 | 31786 ft | 442 kts | 127° |
| 2026-05-07 07:21 | 35.31225 | 133.51030 | 31353 ft | 439 kts | 128° |
| 2026-05-07 07:21 | 35.29655 | 133.54188 | 30923 ft | 442 kts | 122° |
| 2026-05-07 07:21 | 35.28153 | 133.57516 | 30492 ft | 451 kts | 130° |
| 2026-05-07 07:21 | 35.26162 | 133.60468 | 30435 ft | 448 kts | 138° |
| 2026-05-07 07:22 | 35.24031 | 133.63250 | 30046 ft | 448 kts | 138° |
| 2026-05-07 07:22 | 35.21917 | 133.66067 | 29286 ft | 452 kts | 136° |
| 2026-05-07 07:22 | 35.19843 | 133.68990 | 28391 ft | 457 kts | 135° |
| 2026-05-07 07:22 | 35.17800 | 133.71998 | 27383 ft | 464 kts | 134° |
| 2026-05-07 07:23 | 35.15753 | 133.75082 | 26292 ft | 472 kts | 133° |
| 2026-05-07 07:23 | 35.13682 | 133.78227 | 25378 ft | 474 kts | 133° |
| 2026-05-07 07:23 | 35.11627 | 133.81360 | 24783 ft | 470 kts | 133° |
| 2026-05-07 07:23 | 35.09608 | 133.84440 | 24430 ft | 458 kts | 133° |
| 2026-05-07 07:24 | 35.07645 | 133.87432 | 24210 ft | 445 kts | 133° |
| 2026-05-07 07:24 | 35.05730 | 133.90347 | 23978 ft | 436 kts | 133° |
| 2026-05-07 07:24 | 35.03831 | 133.93226 | 23746 ft | 436 kts | 133° |
| 2026-05-07 07:24 | 35.01929 | 133.96102 | 23453 ft | 436 kts | 133° |
| 2026-05-07 07:25 | 34.98120 | 134.01855 | 22273 ft | 433 kts | 133° |
| 2026-05-07 07:25 | 34.96095 | 134.04500 | 21703 ft | 422 kts | 145° |
| 2026-05-07 07:25 | 34.93670 | 134.06399 | 21147 ft | 408 kts | 161° |
| 2026-05-07 07:26 | 34.91016 | 134.07397 | 20622 ft | 394 kts | 175° |
| 2026-05-07 07:26 | 34.88318 | 134.07796 | 20088 ft | 387 kts | 180° |
| 2026-05-07 07:26 | 34.85649 | 134.08070 | 19566 ft | 383 kts | 180° |
| 2026-05-07 07:26 | 34.82997 | 134.08365 | 19035 ft | 381 kts | 179° |
| 2026-05-07 07:27 | 34.80369 | 134.08710 | 18504 ft | 379 kts | 178° |
| 2026-05-07 07:27 | 34.77757 | 134.09095 | 17934 ft | 377 kts | 178° |
| 2026-05-07 07:27 | 34.75160 | 134.09503 | 17402 ft | 374 kts | 177° |
| 2026-05-07 07:27 | 34.72600 | 134.09915 | 16876 ft | 370 kts | 177° |
| 2026-05-07 07:28 | 34.70091 | 134.10321 | 16367 ft | 366 kts | 177° |
| 2026-05-07 07:28 | 34.67548 | 134.10731 | 15806 ft | 363 kts | 177° |
| 2026-05-07 07:28 | 34.65043 | 134.11132 | 15267 ft | 361 kts | 176° |
| 2026-05-07 07:28 | 34.62557 | 134.11529 | 14718 ft | 360 kts | 176° |
| 2026-05-07 07:29 | 34.60078 | 134.11924 | 14177 ft | 358 kts | 176° |
| 2026-05-07 07:29 | 34.57648 | 134.12310 | 13630 ft | 356 kts | 176° |
| 2026-05-07 07:29 | 34.55180 | 134.12771 | 13068 ft | 354 kts | 171° |
| 2026-05-07 07:29 | 34.52861 | 134.13489 | 12874 ft | 342 kts | 167° |
| 2026-05-07 07:30 | 34.50705 | 134.14599 | 12747 ft | 334 kts | 151° |
| 2026-05-07 07:30 | 34.48987 | 134.16440 | 12627 ft | 327 kts | 135° |
| 2026-05-07 07:30 | 34.47514 | 134.18477 | 12522 ft | 316 kts | 134° |
| 2026-05-07 07:30 | 34.46105 | 134.20459 | 12421 ft | 305 kts | 134° |
| 2026-05-07 07:31 | 34.44742 | 134.22373 | 12232 ft | 297 kts | 135° |
| 2026-05-07 07:31 | 34.43388 | 134.24262 | 11869 ft | 297 kts | 135° |
| 2026-05-07 07:31 | 34.42032 | 134.26152 | 11524 ft | 296 kts | 135° |
| 2026-05-07 07:31 | 34.40686 | 134.28025 | 11210 ft | 294 kts | 135° |
| 2026-05-07 07:32 | 34.39348 | 134.29888 | 10922 ft | 292 kts | 134° |
| 2026-05-07 07:32 | 34.38029 | 134.31727 | 10918 ft | 287 kts | 135° |
| 2026-05-07 07:32 | 34.36720 | 134.33549 | 10917 ft | 287 kts | 135° |
| 2026-05-07 07:32 | 34.35408 | 134.35373 | 10865 ft | 288 kts | 135° |
| 2026-05-07 07:33 | 34.34092 | 134.37202 | 10672 ft | 290 kts | 134° |
| 2026-05-07 07:33 | 34.32768 | 134.39043 | 10429 ft | 289 kts | 134° |
| 2026-05-07 07:33 | 34.31452 | 134.40873 | 10161 ft | 287 kts | 134° |
| 2026-05-07 07:33 | 34.30147 | 134.42688 | 10060 ft | 285 kts | 134° |
| 2026-05-07 07:34 | 34.28857 | 134.44479 | 9953 ft | 282 kts | 135° |
| 2026-05-07 07:34 | 34.27985 | 134.45690 | 9840 ft | 282 kts | 135° |
| 2026-05-07 07:34 | 34.26696 | 134.47478 | 9688 ft | 282 kts | 135° |
| 2026-05-07 07:34 | 34.25417 | 134.49251 | 9533 ft | 279 kts | 135° |
| 2026-05-07 07:35 | 34.24143 | 134.51017 | 9388 ft | 278 kts | 135° |
| 2026-05-07 07:35 | 34.22873 | 134.52776 | 9238 ft | 277 kts | 135° |
| 2026-05-07 07:35 | 34.21612 | 134.54522 | 9096 ft | 276 kts | 134° |
| 2026-05-07 07:35 | 34.20373 | 134.56254 | 8948 ft | 276 kts | 131° |
| 2026-05-07 07:36 | 34.19533 | 134.58347 | 8792 ft | 282 kts | 103° |
| 2026-05-07 07:36 | 34.19555 | 134.60727 | 8660 ft | 283 kts | 75° |
| 2026-05-07 07:36 | 34.20417 | 134.62810 | 8516 ft | 283 kts | 50° |
| 2026-05-07 07:36 | 34.21759 | 134.64527 | 8375 ft | 280 kts | 42° |
| 2026-05-07 07:37 | 34.23195 | 134.66158 | 8218 ft | 279 kts | 42° |
| 2026-05-07 07:37 | 34.24551 | 134.67793 | 8056 ft | 277 kts | 45° |
| 2026-05-07 07:37 | 34.25731 | 134.69336 | 7927 ft | 278 kts | 47° |
| 2026-05-07 07:37 | 34.27002 | 134.71097 | 7784 ft | 278 kts | 49° |
| 2026-05-07 07:38 | 34.28246 | 134.72882 | 7639 ft | 277 kts | 49° |
| 2026-05-07 07:38 | 34.29476 | 134.74667 | 7490 ft | 275 kts | 50° |
| 2026-05-07 07:38 | 34.30692 | 134.76439 | 7352 ft | 273 kts | 49° |
| 2026-05-07 07:38 | 34.31907 | 134.78207 | 7203 ft | 272 kts | 49° |
| 2026-05-07 07:39 | 34.33119 | 134.79968 | 7039 ft | 273 kts | 49° |
| 2026-05-07 07:39 | 34.34332 | 134.81729 | 6901 ft | 273 kts | 50° |
| 2026-05-07 07:39 | 34.35542 | 134.83486 | 6755 ft | 270 kts | 50° |
| 2026-05-07 07:39 | 34.36740 | 134.85229 | 6620 ft | 267 kts | 49° |
| 2026-05-07 07:40 | 34.37935 | 134.86967 | 6471 ft | 269 kts | 50° |
| 2026-05-07 07:40 | 34.39128 | 134.88700 | 6333 ft | 268 kts | 50° |
| 2026-05-07 07:40 | 34.40313 | 134.90424 | 6176 ft | 266 kts | 50° |
| 2026-05-07 07:40 | 34.41494 | 134.92143 | 6018 ft | 265 kts | 50° |
| 2026-05-07 07:41 | 34.42666 | 134.93850 | 5891 ft | 264 kts | 50° |
| 2026-05-07 07:41 | 34.43835 | 134.95554 | 5747 ft | 263 kts | 50° |
| 2026-05-07 07:41 | 34.44995 | 134.97246 | 5590 ft | 261 kts | 50° |
| 2026-05-07 07:41 | 34.46157 | 134.98941 | 5465 ft | 261 kts | 50° |
| 2026-05-07 07:42 | 34.47319 | 135.00636 | 5315 ft | 261 kts | 50° |
| 2026-05-07 07:42 | 34.48477 | 135.02327 | 5180 ft | 260 kts | 50° |
| 2026-05-07 07:42 | 34.49632 | 135.04014 | 5037 ft | 260 kts | 50° |
| 2026-05-07 07:42 | 34.50780 | 135.05692 | 4904 ft | 257 kts | 50° |
| 2026-05-07 07:43 | 34.51927 | 135.07371 | 4772 ft | 260 kts | 50° |
| 2026-05-07 07:43 | 34.53078 | 135.09052 | 4607 ft | 257 kts | 50° |
| 2026-05-07 07:43 | 34.54221 | 135.10725 | 4498 ft | 258 kts | 50° |
| 2026-05-07 07:43 | 34.55362 | 135.12396 | 4343 ft | 258 kts | 50° |
| 2026-05-07 07:44 | 34.56506 | 135.14073 | 4214 ft | 257 kts | 50° |
| 2026-05-07 07:44 | 34.57638 | 135.15732 | 4075 ft | 255 kts | 50° |
| 2026-05-07 07:44 | 34.58771 | 135.17393 | 3996 ft | 254 kts | 50° |
| 2026-05-07 07:44 | 34.59866 | 135.19005 | 4003 ft | 241 kts | 52° |
| 2026-05-07 07:45 | 34.60600 | 135.20764 | 3915 ft | 231 kts | 78° |
| 2026-05-07 07:45 | 34.60654 | 135.22655 | 3851 ft | 219 kts | 96° |
| 2026-05-07 07:45 | 34.60552 | 135.24403 | 3716 ft | 216 kts | 94° |
| 2026-05-07 07:45 | 34.60486 | 135.26224 | 3510 ft | 215 kts | 93° |
| 2026-05-07 07:46 | 34.60442 | 135.28042 | 3316 ft | 215 kts | 92° |
| 2026-05-07 07:46 | 34.60406 | 135.29859 | 3117 ft | 214 kts | 92° |
| 2026-05-07 07:46 | 34.60372 | 135.31663 | 2948 ft | 212 kts | 92° |
| 2026-05-07 07:46 | 34.60340 | 135.33402 | 2871 ft | 198 kts | 92° |
| 2026-05-07 07:47 | 34.60310 | 135.35001 | 2462 ft | 191 kts | 92° |
| 2026-05-07 07:47 | 34.60109 | 135.36591 | 2063 ft | 187 kts | 120° |
| 2026-05-07 07:47 | 34.59220 | 135.37658 | 2000 ft | 184 kts | 160° |
| 2026-05-07 07:47 | 34.57976 | 135.37830 | 2012 ft | 179 kts | 187° |
| 2026-05-07 07:48 | 34.56776 | 135.37695 | 1992 ft | 170 kts | 189° |
| 2026-05-07 07:48 | 34.55645 | 135.37401 | 1890 ft | 166 kts | 201° |
| 2026-05-07 07:48 | 34.54567 | 135.36884 | 1746 ft | 167 kts | 205° |
| 2026-05-07 07:48 | 34.53486 | 135.36369 | 1596 ft | 165 kts | 204° |
| 2026-05-07 07:49 | 34.52417 | 135.35875 | 1462 ft | 166 kts | 203° |
| 2026-05-07 07:49 | 34.51341 | 135.35378 | 1292 ft | 166 kts | 203° |
| 2026-05-07 07:49 | 34.50272 | 135.34859 | 1189 ft | 164 kts | 209° |
| 2026-05-07 07:49 | 34.49347 | 135.34088 | 1205 ft | 162 kts | 223° |
| 2026-05-07 07:50 | 34.48556 | 135.33106 | 1216 ft | 163 kts | 230° |
| 2026-05-07 07:50 | 34.47852 | 135.32088 | 1189 ft | 149 kts | 232° |
| 2026-05-07 07:50 | 34.47234 | 135.31157 | 1111 ft | 142 kts | 232° |
| 2026-05-07 07:50 | 34.46621 | 135.30243 | 930 ft | 137 kts | 232° |
| 2026-05-07 07:51 | 34.46033 | 135.29363 | 764 ft | 133 kts | 232° |
| 2026-05-07 07:51 | 34.45451 | 135.28493 | 599 ft | 132 kts | 234° |
| 2026-05-07 07:51 | 34.44865 | 135.27638 | 413 ft | 131 kts | 235° |
| 2026-05-07 07:51 | 34.44297 | 135.26780 | 267 ft | 131 kts | 235° |
| 2026-05-07 07:52 | 34.43745 | 135.25915 | 66 ft | 129 kts | 232° |
| 2026-05-07 07:52 | 34.43224 | 135.25129 | 31 ft | 102 kts | 231° |
| 2026-05-07 07:52 | 34.42855 | 135.24584 | 24 ft | 67 kts | 230° |
| 2026-05-07 07:52 | 34.42604 | 135.24233 | 27 ft | 37 kts | 237° |
| 2026-05-07 07:53 | 34.42541 | 135.24110 | 26 ft | 19 kts | 238° |
| 2026-05-07 07:53 | 34.42486 | 135.23998 | 25 ft | 15 kts | 247° |